DAUL/LOO METAR and TAF weather

Enter ICAO airport designator
Station Type Date Time Source
DAUL METAR 2018/01/22 20:00 UTC NOAA

DAUL 222000Z 00000KT CAVOK 13/05 Q1027


Station Type Date Time Source
DAUL Decoded METAR 2018/01/22 20:00 UTC NOAA

Laghouat, Algeria (DAUL) 33-46N 002-56E 765M
Jan 22, 2018 - 03:00 PM EST / 2018.01.22 2000 UTC
Wind: Calm:0
Visibility: greater than 7 mile(s):0
Temperature: 55 F (13 C)
Dew Point: 41 F (5 C)
Relative Humidity: 58%
Pressure (altimeter): 30.33 in. Hg (1027 hPa)
ob: DAUL 222000Z 00000KT CAVOK 13/05 Q1027
cycle: 20

Station Type Date Time Source
DAUL TAF 2017/11/09 18:03 UTC NOAA

TAF DAUL 091700Z 0918/1009 02012KT 9999 SCT030 SCT100 PROB40
TEMPO 0918/0924 35020G30KT 4000 -TSRA FEW030CB


Example: see airport list